sensor_id;sensor_type;location;lat;lon;timestamp;pressure;altitude;pressure_sealevel;temperature;humidity
41306;BME280;27051;50.376;19.152;2022-07-10T00:00:56;98243.96;;;16.80;52.97
41306;BME280;27051;50.376;19.152;2022-07-10T00:03:23;98243.19;;;16.80;53.04
41306;BME280;27051;50.376;19.152;2022-07-10T00:05:50;98240.40;;;16.76;53.05
41306;BME280;27051;50.376;19.152;2022-07-10T00:08:17;98240.92;;;16.68;53.20
41306;BME280;27051;50.376;19.152;2022-07-10T00:10:44;98241.48;;;16.64;53.37
41306;BME280;27051;50.376;19.152;2022-07-10T00:13:10;98236.59;;;16.60;53.68
41306;BME280;27051;50.376;19.152;2022-07-10T00:15:37;98230.09;;;16.48;53.33
41306;BME280;27051;50.376;19.152;2022-07-10T00:18:05;98233.97;;;16.47;53.62
41306;BME280;27051;50.376;19.152;2022-07-10T00:20:31;98232.62;;;16.47;53.76
41306;BME280;27051;50.376;19.152;2022-07-10T00:22:59;98229.49;;;16.45;53.71
41306;BME280;27051;50.376;19.152;2022-07-10T00:25:26;98230.03;;;16.41;53.89
41306;BME280;27051;50.376;19.152;2022-07-10T00:27:52;98221.88;;;16.37;53.95
41306;BME280;27051;50.376;19.152;2022-07-10T00:30:19;98226.38;;;16.43;54.12
41306;BME280;27051;50.376;19.152;2022-07-10T00:32:46;98222.91;;;16.46;54.10
41306;BME280;27051;50.376;19.152;2022-07-10T00:35:12;98218.98;;;16.40;54.11
41306;BME280;27051;50.376;19.152;2022-07-10T00:37:39;98208.31;;;16.37;54.24
41306;BME280;27051;50.376;19.152;2022-07-10T00:40:07;98206.37;;;16.38;54.39
41306;BME280;27051;50.376;19.152;2022-07-10T00:42:34;98205.27;;;16.46;54.54
41306;BME280;27051;50.376;19.152;2022-07-10T00:45:02;98204.33;;;16.48;54.53
41306;BME280;27051;50.376;19.152;2022-07-10T00:47:30;98196.94;;;16.45;54.45
41306;BME280;27051;50.376;19.152;2022-07-10T00:49:57;98201.44;;;16.50;54.64
41306;BME280;27051;50.376;19.152;2022-07-10T00:52:24;98194.35;;;16.59;54.48
41306;BME280;27051;50.376;19.152;2022-07-10T00:54:51;98194.35;;;16.59;54.67
41306;BME280;27051;50.376;19.152;2022-07-10T00:57:18;98194.54;;;16.60;54.87
41306;BME280;27051;50.376;19.152;2022-07-10T00:59:48;98193.06;;;16.70;54.77
41306;BME280;27051;50.376;19.152;2022-07-10T01:02:16;98184.94;;;16.74;54.65
41306;BME280;27051;50.376;19.152;2022-07-10T01:04:43;98179.41;;;16.80;54.65
41306;BME280;27051;50.376;19.152;2022-07-10T01:07:10;98179.83;;;16.89;54.75
41306;BME280;27051;50.376;19.152;2022-07-10T01:09:37;98178.30;;;16.91;54.68
41306;BME280;27051;50.376;19.152;2022-07-10T01:12:06;98187.24;;;16.92;54.81
41306;BME280;27051;50.376;19.152;2022-07-10T01:14:35;98182.55;;;16.89;54.72
41306;BME280;27051;50.376;19.152;2022-07-10T01:17:02;98183.91;;;16.89;54.91
41306;BME280;27051;50.376;19.152;2022-07-10T01:19:30;98180.82;;;16.90;54.81
41306;BME280;27051;50.376;19.152;2022-07-10T01:21:57;98177.52;;;16.87;54.76
41306;BME280;27051;50.376;19.152;2022-07-10T01:24:24;98176.30;;;16.81;54.95
41306;BME280;27051;50.376;19.152;2022-07-10T01:26:50;98178.82;;;16.80;54.94
41306;BME280;27051;50.376;19.152;2022-07-10T01:29:17;98173.35;;;16.77;54.98
41306;BME280;27051;50.376;19.152;2022-07-10T01:31:43;98171.18;;;16.73;55.07
41306;BME280;27051;50.376;19.152;2022-07-10T01:34:10;98174.84;;;16.70;55.05
41306;BME280;27051;50.376;19.152;2022-07-10T01:36:37;98178.86;;;16.63;55.29
41306;BME280;27051;50.376;19.152;2022-07-10T01:39:05;98176.19;;;16.67;55.42
41306;BME280;27051;50.376;19.152;2022-07-10T01:41:34;98172.73;;;16.74;55.34
41306;BME280;27051;50.376;19.152;2022-07-10T01:44:01;98167.92;;;16.77;55.41
41306;BME280;27051;50.376;19.152;2022-07-10T01:46:28;98161.95;;;16.81;55.41
41306;BME280;27051;50.376;19.152;2022-07-10T01:48:55;98163.90;;;16.84;55.47
41306;BME280;27051;50.376;19.152;2022-07-10T01:51:22;98155.20;;;16.84;55.49
41306;BME280;27051;50.376;19.152;2022-07-10T01:53:50;98153.84;;;16.84;55.47
41306;BME280;27051;50.376;19.152;2022-07-10T01:56:16;98152.27;;;16.80;55.57
41306;BME280;27051;50.376;19.152;2022-07-10T01:58:43;98147.42;;;16.83;55.69
41306;BME280;27051;50.376;19.152;2022-07-10T02:01:11;98145.71;;;16.88;55.72
41306;BME280;27051;50.376;19.152;2022-07-10T02:03:43;98142.05;;;16.90;55.76
41306;BME280;27051;50.376;19.152;2022-07-10T02:06:10;98144.77;;;16.93;55.74
41306;BME280;27051;50.376;19.152;2022-07-10T02:08:37;98138.56;;;16.93;55.83
41306;BME280;27051;50.376;19.152;2022-07-10T02:11:05;98139.74;;;16.96;55.79
41306;BME280;27051;50.376;19.152;2022-07-10T02:13:32;98134.85;;;16.88;55.91
41306;BME280;27051;50.376;19.152;2022-07-10T02:15:59;98130.59;;;16.87;55.95
41306;BME280;27051;50.376;19.152;2022-07-10T02:18:25;98124.36;;;16.86;55.95
41306;BME280;27051;50.376;19.152;2022-07-10T02:20:53;98126.90;;;16.89;56.02
41306;BME280;27051;50.376;19.152;2022-07-10T02:23:20;98130.97;;;16.89;55.99
41306;BME280;27051;50.376;19.152;2022-07-10T02:25:46;98137.98;;;16.93;56.19
41306;BME280;27051;50.376;19.152;2022-07-10T02:28:13;98129.66;;;16.96;56.16
41306;BME280;27051;50.376;19.152;2022-07-10T02:30:39;98126.34;;;16.93;56.13
41306;BME280;27051;50.376;19.152;2022-07-10T02:33:06;98128.06;;;16.84;56.17
41306;BME280;27051;50.376;19.152;2022-07-10T02:35:32;98127.66;;;16.86;56.28
41306;BME280;27051;50.376;19.152;2022-07-10T02:37:59;98129.83;;;16.90;56.37
41306;BME280;27051;50.376;19.152;2022-07-10T02:40:25;98119.34;;;16.88;56.28
41306;BME280;27051;50.376;19.152;2022-07-10T02:42:52;98120.28;;;16.83;56.35
41306;BME280;27051;50.376;19.152;2022-07-10T02:45:19;98120.47;;;16.84;56.47
41306;BME280;27051;50.376;19.152;2022-07-10T02:47:46;98120.09;;;16.82;56.46
41306;BME280;27051;50.376;19.152;2022-07-10T02:50:12;98117.20;;;16.84;56.55
41306;BME280;27051;50.376;19.152;2022-07-10T02:52:39;98113.87;;;16.81;56.56
41306;BME280;27051;50.376;19.152;2022-07-10T02:55:07;98109.83;;;16.85;56.76
41306;BME280;27051;50.376;19.152;2022-07-10T02:57:35;98118.37;;;16.87;56.64
41306;BME280;27051;50.376;19.152;2022-07-10T03:00:04;98116.98;;;16.83;56.64
41306;BME280;27051;50.376;19.152;2022-07-10T03:02:32;98115.22;;;16.78;56.75
41306;BME280;27051;50.376;19.152;2022-07-10T03:04:58;98109.13;;;16.71;56.90
41306;BME280;27051;50.376;19.152;2022-07-10T03:07:25;98110.30;;;16.70;56.88
41306;BME280;27051;50.376;19.152;2022-07-10T03:09:52;98113.78;;;16.70;56.90
41306;BME280;27051;50.376;19.152;2022-07-10T03:12:18;98116.31;;;16.69;56.94
41306;BME280;27051;50.376;19.152;2022-07-10T03:14:45;98106.41;;;16.67;57.05
41306;BME280;27051;50.376;19.152;2022-07-10T03:17:11;98111.37;;;16.58;57.14
41306;BME280;27051;50.376;19.152;2022-07-10T03:19:38;98102.11;;;16.63;57.32
41306;BME280;27051;50.376;19.152;2022-07-10T03:22:04;98096.28;;;16.61;57.30
41306;BME280;27051;50.376;19.152;2022-07-10T03:24:31;98096.45;;;16.58;57.34
41306;BME280;27051;50.376;19.152;2022-07-10T03:26:57;98092.20;;;16.57;57.42
41306;BME280;27051;50.376;19.152;2022-07-10T03:29:24;98091.08;;;16.65;57.50
41306;BME280;27051;50.376;19.152;2022-07-10T03:31:51;98090.72;;;16.70;57.46
41306;BME280;27051;50.376;19.152;2022-07-10T03:34:17;98097.13;;;16.72;57.33
41306;BME280;27051;50.376;19.152;2022-07-10T03:36:44;98097.67;;;16.64;57.49
41306;BME280;27051;50.376;19.152;2022-07-10T03:39:10;98103.51;;;16.66;57.67
41306;BME280;27051;50.376;19.152;2022-07-10T03:41:37;98105.06;;;16.71;57.58
41306;BME280;27051;50.376;19.152;2022-07-10T03:44:04;98103.11;;;16.68;57.65
41306;BME280;27051;50.376;19.152;2022-07-10T03:46:30;98104.05;;;16.62;57.79
41306;BME280;27051;50.376;19.152;2022-07-10T03:48:57;98104.45;;;16.64;57.74
41306;BME280;27051;50.376;19.152;2022-07-10T03:51:23;98105.42;;;16.66;58.02
41306;BME280;27051;50.376;19.152;2022-07-10T03:53:50;98110.47;;;16.64;58.03
41306;BME280;27051;50.376;19.152;2022-07-10T03:56:17;98108.88;;;16.59;57.93
41306;BME280;27051;50.376;19.152;2022-07-10T03:58:43;98111.59;;;16.59;58.03
41306;BME280;27051;50.376;19.152;2022-07-10T04:01:10;98113.19;;;16.64;58.14
41306;BME280;27051;50.376;19.152;2022-07-10T04:03:36;98112.64;;;16.71;58.16
41306;BME280;27051;50.376;19.152;2022-07-10T04:06:03;98109.20;;;16.78;58.17
41306;BME280;27051;50.376;19.152;2022-07-10T04:08:30;98107.98;;;16.72;58.09
41306;BME280;27051;50.376;19.152;2022-07-10T04:10:56;98110.71;;;16.76;58.23
41306;BME280;27051;50.376;19.152;2022-07-10T04:13:23;98103.99;;;16.79;58.25
41306;BME280;27051;50.376;19.152;2022-07-10T04:15:50;98106.71;;;16.83;58.53
41306;BME280;27051;50.376;19.152;2022-07-10T04:18:16;98106.45;;;16.75;58.49
41306;BME280;27051;50.376;19.152;2022-07-10T04:20:43;98104.05;;;16.62;58.97
41306;BME280;27051;50.376;19.152;2022-07-10T04:23:10;98110.55;;;16.50;58.58
41306;BME280;27051;50.376;19.152;2022-07-10T04:25:36;98108.23;;;16.49;58.64
41306;BME280;27051;50.376;19.152;2022-07-10T04:28:03;98102.81;;;16.49;58.95
41306;BME280;27051;50.376;19.152;2022-07-10T04:30:30;98108.02;;;16.48;58.91
41306;BME280;27051;50.376;19.152;2022-07-10T04:32:57;98113.08;;;16.49;58.93
41306;BME280;27051;50.376;19.152;2022-07-10T04:35:23;98109.48;;;16.62;59.43
41306;BME280;27051;50.376;19.152;2022-07-10T04:37:50;98107.58;;;16.66;59.00
41306;BME280;27051;50.376;19.152;2022-07-10T04:40:16;98108.39;;;16.74;59.20
41306;BME280;27051;50.376;19.152;2022-07-10T04:42:43;98110.37;;;16.81;59.08
41306;BME280;27051;50.376;19.152;2022-07-10T04:45:10;98116.98;;;16.83;59.01
41306;BME280;27051;50.376;19.152;2022-07-10T04:47:36;98113.91;;;16.85;59.03
41306;BME280;27051;50.376;19.152;2022-07-10T04:50:05;98108.16;;;16.97;59.10
41306;BME280;27051;50.376;19.152;2022-07-10T04:52:33;98107.42;;;17.11;58.94
41306;BME280;27051;50.376;19.152;2022-07-10T04:54:59;98106.87;;;17.15;58.94
41306;BME280;27051;50.376;19.152;2022-07-10T04:57:26;98102.03;;;17.22;58.75
41306;BME280;27051;50.376;19.152;2022-07-10T04:59:53;98103.59;;;17.30;58.80
41306;BME280;27051;50.376;19.152;2022-07-10T05:02:19;98104.98;;;17.33;58.77
41306;BME280;27051;50.376;19.152;2022-07-10T05:04:46;98113.29;;;17.27;58.49
41306;BME280;27051;50.376;19.152;2022-07-10T05:07:12;98114.98;;;17.11;58.64
41306;BME280;27051;50.376;19.152;2022-07-10T05:09:40;98109.33;;;17.03;58.75
41306;BME280;27051;50.376;19.152;2022-07-10T05:12:08;98117.66;;;17.04;58.94
41306;BME280;27051;50.376;19.152;2022-07-10T05:14:34;98122.53;;;17.05;58.79
41306;BME280;27051;50.376;19.152;2022-07-10T05:17:01;98127.61;;;17.13;59.00
41306;BME280;27051;50.376;19.152;2022-07-10T05:19:28;98121.06;;;17.29;58.92
41306;BME280;27051;50.376;19.152;2022-07-10T05:21:54;98118.56;;;17.37;58.94
41306;BME280;27051;50.376;19.152;2022-07-10T05:24:21;98118.59;;;17.44;58.71
41306;BME280;27051;50.376;19.152;2022-07-10T05:26:48;98123.44;;;17.45;58.68
41306;BME280;27051;50.376;19.152;2022-07-10T05:29:14;98126.03;;;17.58;58.66
41306;BME280;27051;50.376;19.152;2022-07-10T05:31:41;98118.09;;;17.73;58.63
41306;BME280;27051;50.376;19.152;2022-07-10T05:34:07;98129.41;;;17.86;58.29
41306;BME280;27051;50.376;19.152;2022-07-10T05:36:34;98138.53;;;17.95;58.24
41306;BME280;27051;50.376;19.152;2022-07-10T05:39:01;98130.37;;;17.98;58.19
41306;BME280;27051;50.376;19.152;2022-07-10T05:41:27;98135.81;;;17.95;58.04
41306;BME280;27051;50.376;19.152;2022-07-10T05:43:54;98137.37;;;17.92;58.34
41306;BME280;27051;50.376;19.152;2022-07-10T05:46:20;98138.34;;;17.87;57.74
41306;BME280;27051;50.376;19.152;2022-07-10T05:48:47;98133.44;;;17.79;57.81
41306;BME280;27051;50.376;19.152;2022-07-10T05:51:13;98139.25;;;17.77;58.00
41306;BME280;27051;50.376;19.152;2022-07-10T05:53:40;98138.67;;;17.74;57.62
41306;BME280;27051;50.376;19.152;2022-07-10T05:56:07;98133.05;;;17.77;57.48
41306;BME280;27051;50.376;19.152;2022-07-10T05:58:34;98130.12;;;17.69;57.34
41306;BME280;27051;50.376;19.152;2022-07-10T06:01:00;98132.63;;;17.68;57.46
41306;BME280;27051;50.376;19.152;2022-07-10T06:03:27;98129.72;;;17.67;57.49
41306;BME280;27051;50.376;19.152;2022-07-10T06:05:53;98132.86;;;17.76;57.61
41306;BME280;27051;50.376;19.152;2022-07-10T06:08:20;98130.77;;;17.97;57.50
41306;BME280;27051;50.376;19.152;2022-07-10T06:10:47;98129.03;;;18.20;57.36
41306;BME280;27051;50.376;19.152;2022-07-10T06:13:14;98126.50;;;18.28;56.99
41306;BME280;27051;50.376;19.152;2022-07-10T06:15:40;98124.55;;;18.36;56.87
41306;BME280;27051;50.376;19.152;2022-07-10T06:18:07;98118.91;;;18.31;56.76
41306;BME280;27051;50.376;19.152;2022-07-10T06:20:34;98126.50;;;18.28;56.70
41306;BME280;27051;50.376;19.152;2022-07-10T06:23:00;98127.86;;;18.21;56.76
41306;BME280;27051;50.376;19.152;2022-07-10T06:25:27;98125.34;;;18.15;56.66
41306;BME280;27051;50.376;19.152;2022-07-10T06:27:55;98132.53;;;18.10;56.79
41306;BME280;27051;50.376;19.152;2022-07-10T06:30:21;98134.27;;;18.05;56.31
41306;BME280;27051;50.376;19.152;2022-07-10T06:32:48;98133.89;;;18.10;56.53
41306;BME280;27051;50.376;19.152;2022-07-10T06:35:14;98127.47;;;18.15;56.20
41306;BME280;27051;50.376;19.152;2022-07-10T06:37:41;98119.91;;;18.15;56.01
41306;BME280;27051;50.376;19.152;2022-07-10T06:40:13;98116.22;;;18.17;55.69
41306;BME280;27051;50.376;19.152;2022-07-10T06:42:41;98122.23;;;18.31;56.02
41306;BME280;27051;50.376;19.152;2022-07-10T06:45:09;98125.90;;;18.47;55.83
41306;BME280;27051;50.376;19.152;2022-07-10T06:47:36;98128.05;;;18.58;55.62
41306;BME280;27051;50.376;19.152;2022-07-10T06:50:08;98124.91;;;18.77;55.94
41306;BME280;27051;50.376;19.152;2022-07-10T06:52:36;98130.08;;;19.05;55.29
41306;BME280;27051;50.376;19.152;2022-07-10T06:55:04;98121.22;;;19.34;55.15
41306;BME280;27051;50.376;19.152;2022-07-10T06:57:32;98122.84;;;19.58;54.93
41306;BME280;27051;50.376;19.152;2022-07-10T07:00:00;98129.12;;;19.88;53.41
41306;BME280;27051;50.376;19.152;2022-07-10T07:02:26;98136.67;;;19.92;53.70
41306;BME280;27051;50.376;19.152;2022-07-10T07:04:53;98132.23;;;19.90;53.23
41306;BME280;27051;50.376;19.152;2022-07-10T07:07:19;98128.19;;;19.83;52.00
41306;BME280;27051;50.376;19.152;2022-07-10T07:09:46;98131.33;;;19.78;52.61
41306;BME280;27051;50.376;19.152;2022-07-10T07:12:12;98132.10;;;19.78;52.85
41306;BME280;27051;50.376;19.152;2022-07-10T07:14:39;98133.84;;;19.80;52.32
41306;BME280;27051;50.376;19.152;2022-07-10T07:17:06;98129.97;;;19.78;52.39
41306;BME280;27051;50.376;19.152;2022-07-10T07:19:33;98138.67;;;19.88;52.67
41306;BME280;27051;50.376;19.152;2022-07-10T07:22:00;98140.42;;;19.86;52.17
41306;BME280;27051;50.376;19.152;2022-07-10T07:24:26;98140.63;;;19.84;52.04
41306;BME280;27051;50.376;19.152;2022-07-10T07:26:53;98144.62;;;19.72;51.67
41306;BME280;27051;50.376;19.152;2022-07-10T07:29:20;98151.27;;;19.67;51.25
41306;BME280;27051;50.376;19.152;2022-07-10T07:31:47;98148.19;;;19.55;51.38
41306;BME280;27051;50.376;19.152;2022-07-10T07:34:13;98147.83;;;19.49;51.28
41306;BME280;27051;50.376;19.152;2022-07-10T07:36:40;98147.63;;;19.51;51.01
41306;BME280;27051;50.376;19.152;2022-07-10T07:39:06;98145.98;;;19.61;51.03
41306;BME280;27051;50.376;19.152;2022-07-10T07:41:33;98146.55;;;19.71;51.31
41306;BME280;27051;50.376;19.152;2022-07-10T07:43:59;98155.20;;;19.92;51.26
41306;BME280;27051;50.376;19.152;2022-07-10T07:46:26;98151.84;;;20.00;50.69
41306;BME280;27051;50.376;19.152;2022-07-10T07:48:53;98152.02;;;20.01;50.42
41306;BME280;27051;50.376;19.152;2022-07-10T07:51:19;98156.28;;;20.02;50.29
41306;BME280;27051;50.376;19.152;2022-07-10T07:53:46;98157.69;;;19.99;49.94
41306;BME280;27051;50.376;19.152;2022-07-10T07:56:12;98158.70;;;19.93;49.58
41306;BME280;27051;50.376;19.152;2022-07-10T07:58:39;98161.12;;;19.80;49.56
41306;BME280;27051;50.376;19.152;2022-07-10T08:01:05;98154.89;;;19.80;49.46
41306;BME280;27051;50.376;19.152;2022-07-10T08:03:32;98160.88;;;19.86;49.46
41306;BME280;27051;50.376;19.152;2022-07-10T08:05:59;98162.23;;;19.90;49.28
41306;BME280;27051;50.376;19.152;2022-07-10T08:08:25;98162.97;;;19.94;49.19
41306;BME280;27051;50.376;19.152;2022-07-10T08:10:52;98158.84;;;20.01;49.18
41306;BME280;27051;50.376;19.152;2022-07-10T08:13:19;98165.99;;;20.10;49.44
41306;BME280;27051;50.376;19.152;2022-07-10T08:15:45;98164.29;;;20.01;49.03
41306;BME280;27051;50.376;19.152;2022-07-10T08:18:12;98161.70;;;20.09;48.64
41306;BME280;27051;50.376;19.152;2022-07-10T08:20:39;98161.65;;;20.16;48.05
41306;BME280;27051;50.376;19.152;2022-07-10T08:23:07;98165.38;;;20.41;48.02
41306;BME280;27051;50.376;19.152;2022-07-10T08:25:33;98164.61;;;20.63;47.78
41306;BME280;27051;50.376;19.152;2022-07-10T08:28:01;98163.58;;;20.68;47.31
41306;BME280;27051;50.376;19.152;2022-07-10T08:30:29;98165.37;;;20.67;47.42
41306;BME280;27051;50.376;19.152;2022-07-10T08:32:56;98162.86;;;20.64;47.25
41306;BME280;27051;50.376;19.152;2022-07-10T08:35:23;98167.01;;;20.57;47.17
41306;BME280;27051;50.376;19.152;2022-07-10T08:37:49;98163.91;;;20.51;47.14
41306;BME280;27051;50.376;19.152;2022-07-10T08:40:17;98166.33;;;20.42;47.20
41306;BME280;27051;50.376;19.152;2022-07-10T08:42:46;98162.05;;;20.41;47.10
41306;BME280;27051;50.376;19.152;2022-07-10T08:45:14;98158.98;;;20.35;47.08
41306;BME280;27051;50.376;19.152;2022-07-10T08:47:41;98165.10;;;20.24;46.96
41306;BME280;27051;50.376;19.152;2022-07-10T08:50:17;98161.86;;;20.18;47.05
41306;BME280;27051;50.376;19.152;2022-07-10T08:53:52;98166.80;;;20.04;46.79
41306;BME280;27051;50.376;19.152;2022-07-10T08:55:36;98170.45;;;19.83;46.54
41306;BME280;27051;50.376;19.152;2022-07-10T08:58:03;98170.31;;;19.64;46.74
41306;BME280;27051;50.376;19.152;2022-07-10T09:00:31;98168.77;;;19.63;46.75
41306;BME280;27051;50.376;19.152;2022-07-10T09:02:58;98176.16;;;19.73;46.70
41306;BME280;27051;50.376;19.152;2022-07-10T09:05:25;98168.33;;;19.79;45.96
41306;BME280;27051;50.376;19.152;2022-07-10T09:07:54;98173.70;;;19.93;46.24
41306;BME280;27051;50.376;19.152;2022-07-10T09:10:26;98172.86;;;20.03;46.23
41306;BME280;27051;50.376;19.152;2022-07-10T09:12:56;98176.56;;;20.01;45.78
41306;BME280;27051;50.376;19.152;2022-07-10T09:15:26;98167.37;;;20.07;45.79
41306;BME280;27051;50.376;19.152;2022-07-10T09:18:02;98170.09;;;20.10;45.19
41306;BME280;27051;50.376;19.152;2022-07-10T09:20:45;98176.44;;;20.23;44.90
41306;BME280;27051;50.376;19.152;2022-07-10T09:23:20;98165.44;;;20.30;44.66
41306;BME280;27051;50.376;19.152;2022-07-10T09:25:49;98166.58;;;20.36;44.84
41306;BME280;27051;50.376;19.152;2022-07-10T09:28:19;98166.97;;;20.60;44.14
41306;BME280;27051;50.376;19.152;2022-07-10T09:30:48;98173.71;;;20.90;44.34
41306;BME280;27051;50.376;19.152;2022-07-10T09:33:31;98160.61;;;21.12;43.61
41306;BME280;27051;50.376;19.152;2022-07-10T09:36:07;98162.94;;;21.29;43.38
41306;BME280;27051;50.376;19.152;2022-07-10T09:41:19;98152.14;;;21.68;43.13
41306;BME280;27051;50.376;19.152;2022-07-10T09:44:00;98153.45;;;22.38;42.85
41306;BME280;27051;50.376;19.152;2022-07-10T09:46:37;98154.05;;;22.72;42.45
41306;BME280;27051;50.376;19.152;2022-07-10T09:51:40;98161.41;;;22.99;42.55
41306;BME280;27051;50.376;19.152;2022-07-10T09:54:09;98163.63;;;23.16;41.61
41306;BME280;27051;50.376;19.152;2022-07-10T09:56:45;98171.17;;;23.20;41.02
41306;BME280;27051;50.376;19.152;2022-07-10T09:59:15;98165.61;;;23.15;41.07
41306;BME280;27051;50.376;19.152;2022-07-10T10:01:48;98162.89;;;23.24;40.58
41306;BME280;27051;50.376;19.152;2022-07-10T10:04:19;98176.46;;;23.11;41.07
41306;BME280;27051;50.376;19.152;2022-07-10T10:06:52;98181.86;;;23.14;40.87
41306;BME280;27051;50.376;19.152;2022-07-10T10:09:37;98191.82;;;23.16;40.75
41306;BME280;27051;50.376;19.152;2022-07-10T10:12:21;98187.87;;;23.17;40.45
41306;BME280;27051;50.376;19.152;2022-07-10T10:14:54;98189.32;;;23.14;40.56
41306;BME280;27051;50.376;19.152;2022-07-10T10:17:22;98184.36;;;23.17;40.53
41306;BME280;27051;50.376;19.152;2022-07-10T10:19:52;98183.69;;;23.01;40.43
41306;BME280;27051;50.376;19.152;2022-07-10T10:22:21;98175.23;;;22.80;40.25
41306;BME280;27051;50.376;19.152;2022-07-10T10:24:49;98167.58;;;22.60;40.12
41306;BME280;27051;50.376;19.152;2022-07-10T10:27:17;98165.28;;;22.31;40.20
41306;BME280;27051;50.376;19.152;2022-07-10T10:29:45;98170.38;;;22.17;40.32
41306;BME280;27051;50.376;19.152;2022-07-10T10:32:14;98168.41;;;22.06;40.04
41306;BME280;27051;50.376;19.152;2022-07-10T10:34:46;98164.80;;;21.85;39.55
41306;BME280;27051;50.376;19.152;2022-07-10T10:37:38;98164.13;;;21.89;39.74
41306;BME280;27051;50.376;19.152;2022-07-10T10:40:07;98165.70;;;22.02;39.94
41306;BME280;27051;50.376;19.152;2022-07-10T10:42:40;98166.36;;;22.25;39.83
41306;BME280;27051;50.376;19.152;2022-07-10T10:48:10;98152.30;;;23.54;39.55
41306;BME280;27051;50.376;19.152;2022-07-10T10:50:47;98143.91;;;24.14;38.90
41306;BME280;27051;50.376;19.152;2022-07-10T10:53:18;98148.22;;;24.56;38.57
41306;BME280;27051;50.376;19.152;2022-07-10T10:58:43;98134.22;;;26.53;38.06
41306;BME280;27051;50.376;19.152;2022-07-10T11:06:48;98128.36;;;27.83;35.94
41306;BME280;27051;50.376;19.152;2022-07-10T11:09:29;98134.20;;;27.54;35.50
41306;BME280;27051;50.376;19.152;2022-07-10T11:12:06;98139.34;;;26.98;35.73
41306;BME280;27051;50.376;19.152;2022-07-10T11:14:47;98138.84;;;26.26;35.80
41306;BME280;27051;50.376;19.152;2022-07-10T11:17:14;98145.26;;;25.50;36.10
41306;BME280;27051;50.376;19.152;2022-07-10T11:19:40;98151.11;;;24.73;36.48
41306;BME280;27051;50.376;19.152;2022-07-10T11:25:22;98154.78;;;23.56;37.04
41306;BME280;27051;50.376;19.152;2022-07-10T11:28:06;98152.94;;;23.02;36.88
41306;BME280;27051;50.376;19.152;2022-07-10T11:30:54;98154.52;;;22.44;37.10
41306;BME280;27051;50.376;19.152;2022-07-10T11:33:22;98154.53;;;22.05;37.46
41306;BME280;27051;50.376;19.152;2022-07-10T11:35:53;98153.21;;;21.74;37.83
41306;BME280;27051;50.376;19.152;2022-07-10T11:38:25;98157.19;;;21.54;38.24
41306;BME280;27051;50.376;19.152;2022-07-10T11:40:52;98168.89;;;21.39;38.38
41306;BME280;27051;50.376;19.152;2022-07-10T11:43:19;98176.16;;;21.53;38.42
41306;BME280;27051;50.376;19.152;2022-07-10T11:45:46;98163.08;;;21.68;39.11
41306;BME280;27051;50.376;19.152;2022-07-10T11:48:20;98163.06;;;21.83;38.67
41306;BME280;27051;50.376;19.152;2022-07-10T11:50:48;98150.68;;;22.14;38.28
41306;BME280;27051;50.376;19.152;2022-07-10T11:53:23;98152.81;;;22.42;38.40
41306;BME280;27051;50.376;19.152;2022-07-10T11:55:51;98160.41;;;22.66;37.84
41306;BME280;27051;50.376;19.152;2022-07-10T11:58:19;98158.08;;;22.76;37.19
41306;BME280;27051;50.376;19.152;2022-07-10T12:01:00;98162.27;;;22.72;36.94
41306;BME280;27051;50.376;19.152;2022-07-10T12:03:28;98159.69;;;22.73;36.92
41306;BME280;27051;50.376;19.152;2022-07-10T12:06:04;98159.28;;;22.75;37.04
41306;BME280;27051;50.376;19.152;2022-07-10T12:08:43;98158.48;;;22.86;36.84
41306;BME280;27051;50.376;19.152;2022-07-10T12:11:14;98154.06;;;23.04;36.54
41306;BME280;27051;50.376;19.152;2022-07-10T12:13:43;98163.99;;;23.18;36.52
41306;BME280;27051;50.376;19.152;2022-07-10T12:16:12;98158.34;;;23.45;35.77
41306;BME280;27051;50.376;19.152;2022-07-10T12:18:41;98155.20;;;23.75;35.32
41306;BME280;27051;50.376;19.152;2022-07-10T12:21:10;98153.52;;;24.05;35.43
41306;BME280;27051;50.376;19.152;2022-07-10T12:23:38;98147.97;;;24.50;35.30
41306;BME280;27051;50.376;19.152;2022-07-10T12:26:10;98153.89;;;25.23;34.87
41306;BME280;27051;50.376;19.152;2022-07-10T12:28:55;98152.75;;;25.50;34.27
41306;BME280;27051;50.376;19.152;2022-07-10T12:31:26;98157.69;;;25.42;34.12
41306;BME280;27051;50.376;19.152;2022-07-10T12:33:56;98156.56;;;25.19;33.95
41306;BME280;27051;50.376;19.152;2022-07-10T12:36:26;98159.65;;;24.91;33.76
41306;BME280;27051;50.376;19.152;2022-07-10T12:38:54;98162.61;;;24.76;33.95
41306;BME280;27051;50.376;19.152;2022-07-10T12:41:24;98165.90;;;24.63;33.73
41306;BME280;27051;50.376;19.152;2022-07-10T12:43:53;98162.78;;;24.36;33.73
41306;BME280;27051;50.376;19.152;2022-07-10T12:46:22;98165.80;;;24.17;33.83
41306;BME280;27051;50.376;19.152;2022-07-10T12:49:06;98159.10;;;24.10;33.92
41306;BME280;27051;50.376;19.152;2022-07-10T12:51:59;98162.45;;;24.10;33.99
41306;BME280;27051;50.376;19.152;2022-07-10T12:54:35;98162.27;;;24.09;34.35
41306;BME280;27051;50.376;19.152;2022-07-10T12:57:05;98157.54;;;23.93;33.68
41306;BME280;27051;50.376;19.152;2022-07-10T12:59:36;98161.89;;;23.74;33.94
41306;BME280;27051;50.376;19.152;2022-07-10T13:02:20;98162.14;;;23.51;34.04
41306;BME280;27051;50.376;19.152;2022-07-10T13:04:54;98162.70;;;23.43;34.42
41306;BME280;27051;50.376;19.152;2022-07-10T13:07:36;98166.48;;;24.13;34.24
41306;BME280;27051;50.376;19.152;2022-07-10T13:10:06;98160.58;;;24.93;34.06
41306;BME280;27051;50.376;19.152;2022-07-10T13:12:34;98157.34;;;25.40;33.49
41306;BME280;27051;50.376;19.152;2022-07-10T13:15:03;98154.89;;;25.97;33.45
41306;BME280;27051;50.376;19.152;2022-07-10T13:17:31;98148.64;;;26.27;32.71